Terminal Aerodrome Forecast
Issued by NWS

Home | Current Version | Previous Version | Text Only | Print | Product List | Glossary On
Versions: 1 2 3 4 5 6 7 8 9 10 11 12 13 14 15 16 17 18 19 20
000
FTUS41 KGYX 281910 AAB
TAFPSM
TAF AMD
KPSM 281910Z 2819/2918 12010KT P6SM SCT050
      TEMPO 2819/2822 1SM +TSRA BKN025CB
     FM290000 28007KT P6SM SCT120
     FM291200 35007KT P6SM SCT025=

USA.gov is the U.S. government's official web portal to all federal, state and local government web resources and services.